createdAt,value
2023-02-17T00:00:49.592Z,10.20
2023-02-17T00:03:38.219Z,10.30
2023-02-17T00:06:31.729Z,10.30
2023-02-17T00:09:20.264Z,10.30
2023-02-17T00:12:09.098Z,10.30
2023-02-17T00:14:57.599Z,10.20
2023-02-17T00:17:47.453Z,10.30
2023-02-17T00:20:35.877Z,10.20
2023-02-17T00:23:24.450Z,10.10
2023-02-17T00:26:13.058Z,10.00
2023-02-17T00:29:01.647Z,9.90
2023-02-17T00:31:50.602Z,9.90
2023-02-17T00:34:40.655Z,9.90
2023-02-17T00:37:29.224Z,9.80
2023-02-17T00:40:17.984Z,9.30
2023-02-17T00:43:06.820Z,8.90
2023-02-17T00:45:55.996Z,9.00
2023-02-17T00:48:44.627Z,8.90
2023-02-17T00:51:34.534Z,9.30
2023-02-17T00:54:23.061Z,9.40
2023-02-17T00:57:11.827Z,9.40
2023-02-17T01:00:00.440Z,9.50
2023-02-17T01:02:49.082Z,9.60
2023-02-17T01:05:42.383Z,9.10
2023-02-17T01:08:32.347Z,8.60
2023-02-17T01:11:22.197Z,8.70
2023-02-17T01:14:14.672Z,9.00
2023-02-17T01:17:03.245Z,9.20
2023-02-17T01:19:51.651Z,9.30
2023-02-17T01:22:40.900Z,9.20
2023-02-17T01:25:31.041Z,9.20
2023-02-17T01:28:21.754Z,9.30
2023-02-17T01:31:11.646Z,9.10
2023-02-17T01:34:02.594Z,9.20
2023-02-17T01:36:51.101Z,9.10
2023-02-17T01:39:40.326Z,8.80
2023-02-17T01:42:30.268Z,8.70
2023-02-17T01:45:38.030Z,8.40
2023-02-17T01:48:29.481Z,8.50
2023-02-17T01:51:22.943Z,8.60
2023-02-17T01:54:19.543Z,8.50
2023-02-17T01:57:08.290Z,8.30
2023-02-17T01:59:58.559Z,8.40
2023-02-17T02:02:49.545Z,8.50
2023-02-17T02:05:40.358Z,8.60
2023-02-17T02:08:31.807Z,8.80
2023-02-17T02:11:20.590Z,8.90
2023-02-17T02:14:10.452Z,9.00
2023-02-17T02:17:08.190Z,8.90
2023-02-17T02:20:21.693Z,8.60
2023-02-17T02:23:39.098Z,8.30
2023-02-17T02:26:59.346Z,8.20
2023-02-17T02:30:21.238Z,8.20
2023-02-17T02:33:17.974Z,8.30
2023-02-17T02:36:13.761Z,8.30
2023-02-17T02:39:06.263Z,8.30
2023-02-17T02:41:57.456Z,8.50
2023-02-17T02:44:46.209Z,8.40
2023-02-17T02:47:45.003Z,8.10
2023-02-17T02:50:51.745Z,7.90
2023-02-17T02:54:16.671Z,8.10
2023-02-17T02:57:31.842Z,8.40
2023-02-17T03:00:26.333Z,8.50
2023-02-17T03:03:22.404Z,8.80
2023-02-17T03:06:20.276Z,8.60
2023-02-17T03:09:12.698Z,8.60
2023-02-17T03:12:01.303Z,8.70
2023-02-17T03:14:51.420Z,8.70
2023-02-17T03:17:39.941Z,8.50
2023-02-17T03:20:31.400Z,7.90
2023-02-17T03:23:21.637Z,8.10
2023-02-17T03:26:10.173Z,7.80
2023-02-17T03:28:58.574Z,7.70
2023-02-17T03:31:47.201Z,8.20
2023-02-17T03:34:56.528Z,8.00
2023-02-17T03:37:45.058Z,7.80
2023-02-17T03:43:23.738Z,7.40
2023-02-17T03:46:13.285Z,7.50
2023-02-17T03:49:01.800Z,7.40
2023-02-17T03:51:50.391Z,7.50
2023-02-17T03:54:39.121Z,7.60
2023-02-17T03:57:28.977Z,7.60
2023-02-17T04:00:18.140Z,7.60
2023-02-17T04:03:06.653Z,7.70
2023-02-17T04:05:55.553Z,7.70
2023-02-17T04:08:44.092Z,7.90
2023-02-17T04:11:32.558Z,7.70
2023-02-17T04:14:22.488Z,7.50
2023-02-17T04:17:10.959Z,7.40
2023-02-17T04:19:59.676Z,7.70
2023-02-17T04:22:48.265Z,7.70
2023-02-17T04:25:37.470Z,7.70
2023-02-17T04:28:26.354Z,7.80
2023-02-17T04:31:16.342Z,7.80
2023-02-17T04:34:04.909Z,7.70
2023-02-17T04:36:53.475Z,7.80
2023-02-17T04:39:41.959Z,7.70
2023-02-17T04:42:30.498Z,7.80
2023-02-17T04:45:19.206Z,7.90
2023-02-17T04:48:09.140Z,7.90
2023-02-17T04:50:57.617Z,7.70
2023-02-17T04:53:46.104Z,7.90
2023-02-17T04:56:34.671Z,8.00
2023-02-17T04:59:25.488Z,8.20
2023-02-17T05:02:14.292Z,8.20
2023-02-17T05:05:04.336Z,7.70
2023-02-17T05:07:52.839Z,7.60
2023-02-17T05:10:41.432Z,7.50
2023-02-17T05:13:29.919Z,7.30
2023-02-17T05:16:18.609Z,7.20
2023-02-17T05:19:07.667Z,7.20
2023-02-17T05:21:57.636Z,7.20
2023-02-17T05:24:46.151Z,6.90
2023-02-17T05:27:34.837Z,6.90
2023-02-17T05:30:23.645Z,6.50
2023-02-17T05:33:12.278Z,6.50
2023-02-17T05:36:03.905Z,6.40
2023-02-17T05:38:54.021Z,6.60
2023-02-17T05:41:42.520Z,6.60
2023-02-17T05:44:31.158Z,6.60
2023-02-17T05:47:19.698Z,6.60
2023-02-17T05:50:09.468Z,6.70
2023-02-17T05:52:57.974Z,6.20
2023-02-17T05:55:48.855Z,6.40
2023-02-17T05:58:37.449Z,6.50
2023-02-17T06:01:25.960Z,6.60
2023-02-17T06:04:14.414Z,6.70
2023-02-17T06:07:02.992Z,6.70
2023-02-17T06:09:51.588Z,6.70
2023-02-17T06:12:41.646Z,6.80
2023-02-17T06:15:31.002Z,6.10
2023-02-17T06:18:19.608Z,5.90
2023-02-17T06:21:08.089Z,6.20
2023-02-17T06:23:56.560Z,6.20
2023-02-17T06:26:45.109Z,6.30
2023-02-17T06:29:35.325Z,6.30
2023-02-17T06:32:23.920Z,6.30
2023-02-17T06:35:12.752Z,6.40
2023-02-17T06:38:01.267Z,6.80
2023-02-17T06:40:49.929Z,7.00
2023-02-17T06:43:38.418Z,7.20
2023-02-17T06:46:28.313Z,7.20
2023-02-17T06:49:16.991Z,7.20
2023-02-17T06:52:05.747Z,7.10
2023-02-17T06:54:54.222Z,7.20
2023-02-17T06:57:42.782Z,6.90
2023-02-17T07:00:31.426Z,7.10
2023-02-17T07:03:21.523Z,7.30
2023-02-17T07:06:10.066Z,7.10
2023-02-17T07:08:58.705Z,7.10
2023-02-17T07:11:47.340Z,7.10
2023-02-17T07:14:36.670Z,7.20
2023-02-17T07:17:25.890Z,7.60
2023-02-17T07:20:16.100Z,7.80
2023-02-17T07:23:04.578Z,7.90
2023-02-17T07:25:53.259Z,8.00
2023-02-17T07:28:42.507Z,8.10
2023-02-17T07:31:31.522Z,8.10
2023-02-17T07:34:20.543Z,8.30
2023-02-17T07:37:11.028Z,8.50
2023-02-17T07:39:59.606Z,8.70
2023-02-17T07:42:48.160Z,8.90
2023-02-17T07:45:36.603Z,8.90
2023-02-17T07:48:25.116Z,8.70
2023-02-17T07:51:15.712Z,8.90
2023-02-17T07:54:06.018Z,9.00
2023-02-17T07:56:54.554Z,9.20
2023-02-17T07:59:43.045Z,9.20
2023-02-17T08:02:31.668Z,9.50
2023-02-17T08:05:20.275Z,9.60
2023-02-17T08:08:26.261Z,9.70
2023-02-17T08:11:35.091Z,9.90
2023-02-17T08:14:25.366Z,10.00
2023-02-17T08:17:14.022Z,10.20
2023-02-17T08:20:08.658Z,10.20
2023-02-17T08:22:57.939Z,10.40
2023-02-17T08:25:46.533Z,10.50
2023-02-17T08:28:36.568Z,10.50
2023-02-17T08:31:27.499Z,10.70
2023-02-17T08:34:16.391Z,11.00
2023-02-17T08:37:06.194Z,11.00
2023-02-17T08:39:55.091Z,11.10
2023-02-17T08:42:43.634Z,11.40
2023-02-17T08:45:34.065Z,11.50
2023-02-17T08:48:22.582Z,11.40
2023-02-17T08:51:14.894Z,11.30
2023-02-17T08:54:06.431Z,11.60
2023-02-17T08:56:55.140Z,11.80
2023-02-17T08:59:43.688Z,11.90
2023-02-17T09:02:33.523Z,12.10
2023-02-17T09:05:22.266Z,12.20
2023-02-17T09:08:11.138Z,12.20
2023-02-17T09:13:48.637Z,12.70
2023-02-17T09:16:39.605Z,13.00
2023-02-17T09:19:30.356Z,13.40
2023-02-17T09:22:31.719Z,13.50
2023-02-17T09:25:21.225Z,13.50
2023-02-17T09:28:09.939Z,13.50
2023-02-17T09:30:58.592Z,13.60
2023-02-17T09:33:48.839Z,13.60
2023-02-17T09:36:42.137Z,13.60
2023-02-17T09:39:30.684Z,13.60
2023-02-17T09:42:21.608Z,13.60
2023-02-17T09:45:15.449Z,13.70
2023-02-17T09:48:08.692Z,13.80
2023-02-17T09:51:01.109Z,13.90
2023-02-17T09:53:56.286Z,14.00
2023-02-17T09:56:49.773Z,14.20
2023-02-17T09:59:43.556Z,14.20
2023-02-17T10:05:12.893Z,14.30
2023-02-17T10:08:07.741Z,14.50
2023-02-17T10:11:03.222Z,14.50
2023-02-17T10:13:54.100Z,14.40
2023-02-17T10:16:49.325Z,14.40
2023-02-17T10:19:45.902Z,14.50
2023-02-17T10:25:35.413Z,14.90
2023-02-17T10:28:37.839Z,15.10
2023-02-17T10:31:36.162Z,15.30
2023-02-17T10:34:36.064Z,15.50
2023-02-17T10:37:32.315Z,15.60
2023-02-17T10:40:23.778Z,15.60
2023-02-17T10:46:09.342Z,15.90
2023-02-17T10:49:00.136Z,16.10
2023-02-17T10:51:48.684Z,16.20
2023-02-17T10:54:40.479Z,16.40
2023-02-17T10:57:33.796Z,16.50
2023-02-17T11:00:22.853Z,16.70
2023-02-17T11:03:22.090Z,16.80
2023-02-17T11:06:19.709Z,16.80
2023-02-17T11:09:18.410Z,17.00
2023-02-17T11:12:13.890Z,17.10
2023-02-17T11:15:06.356Z,17.20
2023-02-17T11:17:55.575Z,17.10
2023-02-17T11:20:45.622Z,17.10
2023-02-17T11:26:26.212Z,17.40
2023-02-17T11:29:18.469Z,17.60
2023-02-17T11:32:09.109Z,17.80
2023-02-17T11:35:00.726Z,17.90
2023-02-17T11:37:50.978Z,17.90
2023-02-17T11:40:39.866Z,18.00
2023-02-17T11:43:29.794Z,18.10
2023-02-17T11:46:35.440Z,18.10
2023-02-17T11:50:15.222Z,18.10
2023-02-17T11:53:25.112Z,18.20
2023-02-17T11:56:19.110Z,18.40
2023-02-17T11:59:25.494Z,18.40
2023-02-17T12:02:26.895Z,18.40
2023-02-17T12:05:26.353Z,18.50
2023-02-17T12:14:19.697Z,18.80
2023-02-17T12:17:17.602Z,18.90
2023-02-17T12:20:20.327Z,19.10
2023-02-17T12:23:28.525Z,19.20
2023-02-17T12:29:33.361Z,19.50
2023-02-17T12:32:35.096Z,19.60
2023-02-17T12:35:27.067Z,19.70
2023-02-17T12:38:18.896Z,19.80
2023-02-17T12:41:12.870Z,19.90
2023-02-17T12:44:04.371Z,20.00
2023-02-17T12:46:55.674Z,20.00
2023-02-17T12:49:48.409Z,19.80
2023-02-17T12:52:41.600Z,20.00
2023-02-17T12:55:37.692Z,20.10
2023-02-17T12:58:29.826Z,20.20
2023-02-17T13:01:21.798Z,20.10
2023-02-17T13:04:16.376Z,20.10
2023-02-17T13:07:34.540Z,20.20
2023-02-17T13:10:32.188Z,20.20
2023-02-17T13:13:30.740Z,20.40
2023-02-17T13:16:19.360Z,20.50
2023-02-17T13:19:09.564Z,20.50
2023-02-17T13:21:59.859Z,20.50
2023-02-17T13:24:54.183Z,20.50
2023-02-17T13:27:42.877Z,20.60
2023-02-17T13:33:32.068Z,20.70
2023-02-17T13:36:37.097Z,21.20
2023-02-17T13:39:34.607Z,20.80
2023-02-17T13:42:38.643Z,20.80
2023-02-17T13:45:28.781Z,20.70
2023-02-17T13:48:26.225Z,20.70
2023-02-17T13:51:28.123Z,20.60
2023-02-17T13:54:22.142Z,20.60
2023-02-17T13:57:24.518Z,20.60
2023-02-17T14:00:23.608Z,20.60
2023-02-17T14:03:20.229Z,20.40
2023-02-17T14:06:13.753Z,20.20
2023-02-17T14:09:12.431Z,20.00
2023-02-17T14:17:40.633Z,19.30
2023-02-17T14:29:05.130Z,18.60
2023-02-17T14:57:27.681Z,17.60
2023-02-17T15:00:17.340Z,17.70
2023-02-17T15:03:06.106Z,17.50
2023-02-17T15:05:55.193Z,17.60
2023-02-17T15:08:45.391Z,17.60
2023-02-17T15:11:37.524Z,17.80
2023-02-17T15:14:26.456Z,18.00
2023-02-17T15:17:15.324Z,18.10
2023-02-17T15:20:05.656Z,18.00
2023-02-17T15:22:54.753Z,18.10
2023-02-17T15:25:44.353Z,18.00
2023-02-17T15:28:34.359Z,17.90
2023-02-17T15:31:23.155Z,17.80
2023-02-17T15:34:15.411Z,17.70
2023-02-17T15:37:03.986Z,17.60
2023-02-17T15:39:52.571Z,17.50
2023-02-17T15:56:54.256Z,16.70
2023-02-17T15:59:42.945Z,16.70
2023-02-17T16:02:33.447Z,16.60
2023-02-17T16:05:24.580Z,16.50
2023-02-17T16:08:13.181Z,16.40
2023-02-17T16:11:01.884Z,16.50
2023-02-17T16:13:50.938Z,16.30
2023-02-17T16:16:39.484Z,16.20
2023-02-17T16:19:29.606Z,16.10
2023-02-17T16:22:18.165Z,16.00
2023-02-17T16:25:07.336Z,15.90
2023-02-17T16:27:56.815Z,15.80
2023-02-17T16:30:46.298Z,15.90
2023-02-17T16:33:34.791Z,15.90
2023-02-17T16:36:24.631Z,15.90
2023-02-17T16:39:15.644Z,15.80
2023-02-17T16:42:04.197Z,15.70
2023-02-17T16:44:53.043Z,15.70
2023-02-17T16:47:41.663Z,15.70
2023-02-17T16:50:32.337Z,15.60
2023-02-17T16:53:23.079Z,15.50
2023-02-17T16:56:19.561Z,15.50
2023-02-17T16:59:08.182Z,15.40
2023-02-17T17:01:56.700Z,15.30
2023-02-17T17:04:45.326Z,15.30
2023-02-17T17:07:33.978Z,15.20
2023-02-17T17:10:25.715Z,15.20
2023-02-17T17:13:16.633Z,15.10
2023-02-17T17:16:05.556Z,15.10
2023-02-17T17:18:54.355Z,15.10
2023-02-17T17:21:42.883Z,15.00
2023-02-17T17:24:31.820Z,15.00
2023-02-17T17:27:21.758Z,15.00
2023-02-17T17:30:16.366Z,14.90
2023-02-17T17:33:05.309Z,14.80
2023-02-17T17:35:54.856Z,14.80
2023-02-17T17:38:43.378Z,14.70
2023-02-17T17:41:31.933Z,14.70
2023-02-17T17:44:22.023Z,14.60
2023-02-17T17:47:28.148Z,14.60
2023-02-17T17:50:20.229Z,14.60
2023-02-17T17:53:09.336Z,14.50
2023-02-17T17:56:02.363Z,14.50
2023-02-17T17:58:51.093Z,14.40
2023-02-17T18:01:41.695Z,14.40
2023-02-17T18:04:31.292Z,14.30
2023-02-17T18:07:19.794Z,14.10
2023-02-17T18:10:10.550Z,14.10
2023-02-17T18:12:59.349Z,14.20
2023-02-17T18:15:48.155Z,14.20
2023-02-17T18:18:38.646Z,14.10
2023-02-17T18:21:27.200Z,14.10
2023-02-17T18:24:15.717Z,14.10
2023-02-17T18:27:04.856Z,14.10
2023-02-17T18:29:56.476Z,14.00
2023-02-17T18:32:45.780Z,13.90
2023-02-17T18:35:37.039Z,13.80
2023-02-17T18:38:25.640Z,13.60
2023-02-17T18:53:05.372Z,13.60
2023-02-17T18:55:53.935Z,12.40
2023-02-17T18:58:42.732Z,12.40
2023-02-17T19:01:34.711Z,12.00
2023-02-17T19:04:23.228Z,12.00
2023-02-17T19:07:11.685Z,12.00
2023-02-17T19:10:01.617Z,12.10
2023-02-17T19:12:50.123Z,12.50
2023-02-17T19:15:38.969Z,12.90
2023-02-17T19:18:27.441Z,13.00
2023-02-17T19:21:16.927Z,13.10
2023-02-17T19:24:06.078Z,13.10
2023-02-17T19:26:57.083Z,12.90
2023-02-17T19:29:45.480Z,13.00
2023-02-17T19:32:33.907Z,13.00
2023-02-17T19:35:22.362Z,12.80
2023-02-17T19:38:10.977Z,12.70
2023-02-17T19:40:59.475Z,12.90
2023-02-17T19:43:49.805Z,12.80
2023-02-17T19:46:38.872Z,12.80
2023-02-17T19:49:27.639Z,12.50
2023-02-17T19:52:16.165Z,12.40
2023-02-17T19:55:05.063Z,12.30
2023-02-17T19:57:54.406Z,12.00
2023-02-17T20:00:44.227Z,11.70
2023-02-17T20:03:32.643Z,11.40
2023-02-17T20:06:23.208Z,11.30
2023-02-17T20:09:15.473Z,11.20
2023-02-17T20:12:03.998Z,11.20
2023-02-17T20:14:54.835Z,10.90
2023-02-17T20:17:44.924Z,10.90
2023-02-17T20:20:33.396Z,10.30
2023-02-17T20:23:22.336Z,10.30
2023-02-17T20:26:12.945Z,10.50
2023-02-17T20:29:02.969Z,10.50
2023-02-17T20:31:51.747Z,10.60
2023-02-17T20:34:41.829Z,10.40
2023-02-17T20:37:30.260Z,10.20
2023-02-17T20:40:18.902Z,10.10
2023-02-17T20:43:07.371Z,10.10
2023-02-17T20:45:55.951Z,10.20
2023-02-17T20:48:44.450Z,10.40
2023-02-17T20:51:34.263Z,10.20
2023-02-17T20:54:24.723Z,10.30
2023-02-17T20:57:20.976Z,10.00
2023-02-17T21:00:14.040Z,10.40
2023-02-17T21:03:03.134Z,10.20
2023-02-17T21:05:51.571Z,10.20
2023-02-17T21:08:41.414Z,10.20
2023-02-17T21:11:30.101Z,10.30
2023-02-17T21:14:18.605Z,10.30
2023-02-17T21:17:07.068Z,10.30
2023-02-17T21:19:55.482Z,10.30
2023-02-17T21:22:44.386Z,10.30
2023-02-17T21:25:34.265Z,10.00
2023-02-17T21:28:22.747Z,10.20
2023-02-17T21:31:11.888Z,10.40
2023-02-17T21:34:01.087Z,10.20
2023-02-17T21:36:49.558Z,10.20
2023-02-17T21:39:38.489Z,10.50
2023-02-17T21:42:46.123Z,10.70
2023-02-17T21:45:39.377Z,10.70
2023-02-17T21:48:28.047Z,10.70
2023-02-17T21:51:16.831Z,11.00
2023-02-17T21:54:05.675Z,11.00
2023-02-17T21:56:54.157Z,10.60
2023-02-17T21:59:44.199Z,10.70
2023-02-17T22:02:32.651Z,10.60
2023-02-17T22:05:21.304Z,10.40
2023-02-17T22:10:40.596Z,10.20
2023-02-17T22:13:29.057Z,10.20
2023-02-17T22:16:18.943Z,10.10
2023-02-17T22:19:09.068Z,10.40
2023-02-17T22:21:57.540Z,10.40
2023-02-17T22:24:45.993Z,10.40
2023-02-17T22:27:34.549Z,10.30
2023-02-17T22:30:24.548Z,10.40
2023-02-17T22:33:14.365Z,10.30
2023-02-17T22:36:07.496Z,10.30
2023-02-17T22:38:56.380Z,10.20
2023-02-17T22:41:45.274Z,10.20
2023-02-17T22:44:33.847Z,10.40
2023-02-17T22:47:22.358Z,10.40
2023-02-17T22:50:12.345Z,10.40
2023-02-17T22:53:00.870Z,10.40
2023-02-17T22:55:53.616Z,10.20
2023-02-17T22:58:42.728Z,10.20
2023-02-17T23:01:33.068Z,10.40
2023-02-17T23:04:21.605Z,10.40
2023-02-17T23:07:11.479Z,10.20
2023-02-17T23:09:59.968Z,10.30
2023-02-17T23:12:48.483Z,10.30
2023-02-17T23:15:40.637Z,10.30
2023-02-17T23:18:31.544Z,10.40
2023-02-17T23:21:20.802Z,10.30
2023-02-17T23:24:10.741Z,10.40
2023-02-17T23:27:01.044Z,10.40
2023-02-17T23:29:49.516Z,10.50
2023-02-17T23:32:37.974Z,10.60
2023-02-17T23:35:26.712Z,10.70
2023-02-17T23:38:17.470Z,10.80
2023-02-17T23:41:07.553Z,11.10
2023-02-17T23:43:56.809Z,11.30
2023-02-17T23:46:46.930Z,11.20
2023-02-17T23:49:35.515Z,11.20
2023-02-17T23:52:23.996Z,11.30
2023-02-17T23:55:12.603Z,11.20
2023-02-17T23:58:02.629Z,11.20
